createdAt,value
2018-09-25T11:55:13.904Z,20.37
2018-09-25T11:56:12.817Z,20.41
2018-09-25T11:57:12.640Z,20.49
2018-09-25T11:58:13.060Z,20.60
2018-09-25T11:59:12.887Z,20.70
2018-09-25T12:00:12.741Z,20.82
2018-09-25T12:01:12.500Z,20.92
2018-09-25T12:02:12.303Z,21.00
2018-09-25T12:03:12.222Z,21.04
2018-09-25T12:04:12.125Z,21.04
2018-09-25T12:05:11.903Z,21.08
2018-09-25T12:06:11.927Z,21.18
2018-09-25T12:07:11.700Z,21.19
2018-09-25T12:08:11.948Z,21.22
2018-09-25T12:09:11.441Z,21.23
2018-09-25T12:10:11.666Z,21.30
2018-09-25T12:11:11.567Z,21.44
2018-09-25T12:12:11.221Z,21.50
2018-09-25T12:13:11.098Z,21.45
2018-09-25T12:14:11.246Z,21.55
2018-09-25T12:15:10.858Z,21.59
2018-09-25T12:16:10.903Z,21.60
2018-09-25T12:17:11.082Z,21.63
2018-09-25T12:18:11.505Z,21.59
2018-09-25T12:42:31.543Z,21.80
2018-09-25T12:43:32.248Z,21.81
2018-09-25T12:44:31.303Z,21.84
2018-09-25T12:45:31.648Z,21.82
2018-09-25T12:46:31.664Z,21.84
2018-09-25T12:47:31.325Z,21.84
2018-09-25T12:48:31.278Z,21.78
2018-09-25T12:49:31.421Z,21.82
2018-09-25T12:50:30.997Z,21.85
2018-09-25T12:51:31.906Z,21.82
2018-09-25T12:52:30.969Z,21.81
2018-09-25T12:53:31.425Z,21.90
2018-09-25T12:54:34.979Z,21.80
2018-09-25T12:55:31.423Z,21.88
2018-09-25T12:56:30.201Z,21.96
2018-09-25T12:57:29.986Z,21.93
2018-09-25T12:58:30.485Z,21.96
2018-09-25T12:59:31.100Z,21.84
2018-09-25T13:00:29.824Z,21.93
2018-09-25T13:01:30.460Z,22.03
2018-09-25T13:02:30.421Z,22.00
2018-09-25T13:03:29.802Z,22.04
2018-09-25T13:04:30.586Z,22.07
2018-09-25T13:05:28.819Z,21.97
2018-09-25T13:06:28.849Z,22.11
2018-09-25T13:07:45.194Z,22.12
2018-09-25T13:08:40.142Z,22.21
2018-09-25T13:09:30.393Z,22.34
2018-09-25T13:10:28.361Z,22.25
2018-09-25T13:11:29.199Z,22.41
2018-09-25T13:12:28.502Z,22.52
2018-09-25T13:13:28.038Z,22.58
2018-09-25T13:14:28.221Z,22.61
2018-09-25T13:15:27.964Z,22.52
2018-09-25T13:16:29.727Z,22.67
2018-09-25T13:17:28.501Z,22.66
2018-09-25T13:18:28.100Z,22.67
2018-09-25T13:19:27.886Z,22.73
2018-09-25T13:20:27.283Z,22.81
2018-09-25T13:21:27.779Z,22.85
2018-09-25T13:22:27.903Z,22.96
2018-09-25T13:23:27.402Z,22.91
2018-09-25T13:24:27.264Z,22.83
2018-09-25T13:25:26.544Z,22.92
2018-09-25T13:26:27.257Z,23.03
2018-09-25T13:27:26.960Z,23.04
2018-09-25T13:28:26.799Z,23.01
2018-09-25T13:29:26.759Z,22.99
2018-09-25T13:30:26.059Z,23.03
2018-09-25T13:31:25.724Z,22.99
2018-09-25T13:32:26.642Z,23.03
2018-09-25T13:33:25.526Z,22.98
2018-09-25T13:34:26.459Z,22.89
2018-09-25T13:35:25.640Z,22.95
2018-09-25T13:36:26.083Z,22.88
2018-09-25T13:37:25.338Z,22.83
2018-09-25T13:38:26.704Z,22.81
2018-09-25T13:39:25.001Z,22.80
2018-09-25T13:40:25.803Z,22.77
2018-09-25T13:41:24.702Z,22.73
2018-09-25T13:42:25.303Z,22.77
2018-09-25T13:43:24.820Z,22.64
2018-09-25T13:44:25.124Z,22.64
2018-09-25T13:45:24.327Z,22.52
2018-09-25T13:46:23.879Z,22.58
2018-09-25T13:47:23.690Z,22.48
2018-09-25T13:48:23.824Z,22.41
2018-09-25T13:49:23.626Z,22.49
2018-09-25T13:50:23.641Z,22.43
2018-09-25T13:51:23.836Z,22.34
2018-09-25T13:52:23.244Z,22.30
2018-09-25T13:53:22.799Z,22.23
2018-09-25T13:54:23.448Z,22.31
2018-09-25T13:55:23.343Z,22.18
2018-09-25T13:56:23.046Z,22.16
2018-09-25T13:57:23.144Z,22.19
2018-09-25T13:58:22.542Z,22.12
2018-09-25T13:59:22.309Z,22.11
2018-09-25T14:00:22.485Z,22.13
2018-09-25T14:01:22.138Z,22.13
2018-09-25T14:02:22.433Z,22.07
2018-09-25T14:03:21.510Z,22.04
2018-09-25T14:04:40.008Z,22.12
2018-09-25T14:05:21.247Z,22.03
2018-09-25T14:06:21.360Z,22.19
2018-09-25T14:07:20.881Z,22.13
2018-09-25T14:08:21.533Z,22.25
2018-09-25T14:09:21.632Z,22.23
2018-09-25T14:10:23.657Z,22.27
2018-09-25T14:11:20.035Z,21.90
2018-09-25T14:12:19.815Z,21.56
2018-09-25T14:13:20.286Z,21.05
2018-09-25T14:14:19.534Z,20.73
2018-09-25T14:15:19.916Z,20.18
2018-09-25T14:16:20.142Z,19.71
2018-09-25T14:17:19.093Z,19.26
2018-09-25T14:18:19.634Z,19.12
2018-09-25T14:19:18.935Z,18.38
2018-09-25T14:20:18.755Z,17.45
2018-09-25T14:21:20.113Z,16.76
2018-09-25T14:22:18.616Z,16.84
2018-09-25T14:23:18.198Z,16.34
2018-09-25T14:24:18.100Z,15.56
2018-09-25T14:25:18.654Z,15.30
2018-09-25T14:26:17.756Z,15.26
2018-09-25T14:27:17.631Z,15.03
2018-09-25T14:28:18.378Z,14.90
2018-09-25T14:29:17.400Z,15.77
2018-09-25T14:30:17.564Z,16.08
2018-09-25T14:31:17.183Z,16.59
2018-09-25T14:32:17.032Z,17.14
2018-09-25T14:33:16.794Z,17.50
2018-09-25T14:34:16.741Z,17.54
2018-09-25T14:35:16.482Z,17.86
2018-09-25T14:36:16.570Z,17.81
2018-09-25T14:37:16.198Z,17.79
2018-09-25T14:38:16.138Z,17.78
2018-09-25T14:39:15.921Z,17.39
2018-09-25T14:40:15.809Z,17.27
2018-09-25T14:41:15.704Z,16.69
2018-09-25T14:42:15.494Z,16.26
2018-09-25T14:43:15.362Z,15.85
2018-09-25T14:44:15.296Z,15.63
2018-09-25T14:45:15.156Z,15.40
2018-09-25T14:46:15.714Z,15.44
2018-09-25T14:47:14.907Z,15.58
2018-09-25T14:48:19.169Z,15.35
